sensor_id;sensor_type;location;lat;lon;timestamp;P1;P2;P0
31330;PMS5003;34067;39.548;-76.088;2023-04-15T00:01:41;12;12;
31330;PMS5003;34067;39.548;-76.088;2023-04-15T00:04:09;7;7;
31330;PMS5003;34067;39.548;-76.088;2023-04-15T00:06:37;13;13;
31330;PMS5003;34067;39.548;-76.088;2023-04-15T00:09:04;6;6;
31330;PMS5003;34067;39.548;-76.088;2023-04-15T00:11:32;6;6;
31330;PMS5003;34067;39.548;-76.088;2023-04-15T00:14:00;6;5;
31330;PMS5003;34067;39.548;-76.088;2023-04-15T00:16:28;5;5;
31330;PMS5003;34067;39.548;-76.088;2023-04-15T00:18:56;6;5;
31330;PMS5003;34067;39.548;-76.088;2023-04-15T00:21:24;7;6;
31330;PMS5003;34067;39.548;-76.088;2023-04-15T00:23:52;4;4;
31330;PMS5003;34067;39.548;-76.088;2023-04-15T00:26:19;7;6;
31330;PMS5003;34067;39.548;-76.088;2023-04-15T00:28:47;5;5;
31330;PMS5003;34067;39.548;-76.088;2023-04-15T00:31:15;5;5;
31330;PMS5003;34067;39.548;-76.088;2023-04-15T00:33:43;5;5;
31330;PMS5003;34067;39.548;-76.088;2023-04-15T00:36:11;5;5;
31330;PMS5003;34067;39.548;-76.088;2023-04-15T00:38:39;6;4;
31330;PMS5003;34067;39.548;-76.088;2023-04-15T00:41:07;48;42;
31330;PMS5003;34067;39.548;-76.088;2023-04-15T00:43:36;6;6;
31330;PMS5003;34067;39.548;-76.088;2023-04-15T00:46:04;5;4;
31330;PMS5003;34067;39.548;-76.088;2023-04-15T00:48:32;6;5;
31330;PMS5003;34067;39.548;-76.088;2023-04-15T00:51:01;5;4;
31330;PMS5003;34067;39.548;-76.088;2023-04-15T00:53:29;5;5;
31330;PMS5003;34067;39.548;-76.088;2023-04-15T00:55:57;5;4;
31330;PMS5003;34067;39.548;-76.088;2023-04-15T00:58:25;6;5;
31330;PMS5003;34067;39.548;-76.088;2023-04-15T01:00:53;7;7;
31330;PMS5003;34067;39.548;-76.088;2023-04-15T01:03:22;3;3;
31330;PMS5003;34067;39.548;-76.088;2023-04-15T01:05:50;4;4;
31330;PMS5003;34067;39.548;-76.088;2023-04-15T01:08:19;6;6;
31330;PMS5003;34067;39.548;-76.088;2023-04-15T01:10:47;4;4;
31330;PMS5003;34067;39.548;-76.088;2023-04-15T01:13:14;9;9;
31330;PMS5003;34067;39.548;-76.088;2023-04-15T01:15:42;6;5;
31330;PMS5003;34067;39.548;-76.088;2023-04-15T01:18:10;5;5;
31330;PMS5003;34067;39.548;-76.088;2023-04-15T01:20:38;5;5;
31330;PMS5003;34067;39.548;-76.088;2023-04-15T01:23:06;6;6;
31330;PMS5003;34067;39.548;-76.088;2023-04-15T01:25:34;5;4;
31330;PMS5003;34067;39.548;-76.088;2023-04-15T01:28:02;5;4;
31330;PMS5003;34067;39.548;-76.088;2023-04-15T01:30:32;4;4;
31330;PMS5003;34067;39.548;-76.088;2023-04-15T01:33:00;45;42;
31330;PMS5003;34067;39.548;-76.088;2023-04-15T01:35:28;5;5;
31330;PMS5003;34067;39.548;-76.088;2023-04-15T01:37:58;6;6;
31330;PMS5003;34067;39.548;-76.088;2023-04-15T01:40:31;6;5;
31330;PMS5003;34067;39.548;-76.088;2023-04-15T01:42:59;4;4;
31330;PMS5003;34067;39.548;-76.088;2023-04-15T01:45:27;6;5;
31330;PMS5003;34067;39.548;-76.088;2023-04-15T01:47:55;5;5;
31330;PMS5003;34067;39.548;-76.088;2023-04-15T01:50:23;4;4;
31330;PMS5003;34067;39.548;-76.088;2023-04-15T01:52:51;6;5;
31330;PMS5003;34067;39.548;-76.088;2023-04-15T01:55:19;6;5;
31330;PMS5003;34067;39.548;-76.088;2023-04-15T01:57:47;8;7;
31330;PMS5003;34067;39.548;-76.088;2023-04-15T02:00:15;6;5;
31330;PMS5003;34067;39.548;-76.088;2023-04-15T02:02:44;5;5;
31330;PMS5003;34067;39.548;-76.088;2023-04-15T02:05:12;4;4;
31330;PMS5003;34067;39.548;-76.088;2023-04-15T02:07:39;5;5;
31330;PMS5003;34067;39.548;-76.088;2023-04-15T02:10:09;7;4;
31330;PMS5003;34067;39.548;-76.088;2023-04-15T02:12:37;5;4;
31330;PMS5003;34067;39.548;-76.088;2023-04-15T02:15:05;7;6;
31330;PMS5003;34067;39.548;-76.088;2023-04-15T02:17:34;3;3;
31330;PMS5003;34067;39.548;-76.088;2023-04-15T02:20:02;5;5;
31330;PMS5003;34067;39.548;-76.088;2023-04-15T02:22:30;5;5;
31330;PMS5003;34067;39.548;-76.088;2023-04-15T02:24:58;6;6;
31330;PMS5003;34067;39.548;-76.088;2023-04-15T02:27:26;5;5;
31330;PMS5003;34067;39.548;-76.088;2023-04-15T02:29:54;6;5;
31330;PMS5003;34067;39.548;-76.088;2023-04-15T02:32:22;4;4;
31330;PMS5003;34067;39.548;-76.088;2023-04-15T02:34:50;3;3;
31330;PMS5003;34067;39.548;-76.088;2023-04-15T02:37:17;6;6;
31330;PMS5003;34067;39.548;-76.088;2023-04-15T02:39:45;7;6;
31330;PMS5003;34067;39.548;-76.088;2023-04-15T02:42:13;6;5;
31330;PMS5003;34067;39.548;-76.088;2023-04-15T02:44:41;7;6;
31330;PMS5003;34067;39.548;-76.088;2023-04-15T02:47:09;6;6;
31330;PMS5003;34067;39.548;-76.088;2023-04-15T02:49:37;7;7;
31330;PMS5003;34067;39.548;-76.088;2023-04-15T02:52:05;4;4;
31330;PMS5003;34067;39.548;-76.088;2023-04-15T02:54:33;7;6;
31330;PMS5003;34067;39.548;-76.088;2023-04-15T02:57:02;6;6;
31330;PMS5003;34067;39.548;-76.088;2023-04-15T02:59:29;7;7;
31330;PMS5003;34067;39.548;-76.088;2023-04-15T03:01:57;7;7;
31330;PMS5003;34067;39.548;-76.088;2023-04-15T03:04:25;7;7;
31330;PMS5003;34067;39.548;-76.088;2023-04-15T03:06:53;7;7;
31330;PMS5003;34067;39.548;-76.088;2023-04-15T03:09:21;6;5;
31330;PMS5003;34067;39.548;-76.088;2023-04-15T03:11:49;6;6;
31330;PMS5003;34067;39.548;-76.088;2023-04-15T03:14:17;7;7;
31330;PMS5003;34067;39.548;-76.088;2023-04-15T03:16:45;8;8;
31330;PMS5003;34067;39.548;-76.088;2023-04-15T03:19:13;5;5;
31330;PMS5003;34067;39.548;-76.088;2023-04-15T03:21:41;5;5;
31330;PMS5003;34067;39.548;-76.088;2023-04-15T03:24:09;7;7;
31330;PMS5003;34067;39.548;-76.088;2023-04-15T03:26:37;7;7;
31330;PMS5003;34067;39.548;-76.088;2023-04-15T03:29:05;7;6;
31330;PMS5003;34067;39.548;-76.088;2023-04-15T03:31:33;4;4;
31330;PMS5003;34067;39.548;-76.088;2023-04-15T03:34:00;5;5;
31330;PMS5003;34067;39.548;-76.088;2023-04-15T03:36:29;5;5;
31330;PMS5003;34067;39.548;-76.088;2023-04-15T03:38:58;7;6;
31330;PMS5003;34067;39.548;-76.088;2023-04-15T03:41:26;5;5;
31330;PMS5003;34067;39.548;-76.088;2023-04-15T03:43:54;4;3;
31330;PMS5003;34067;39.548;-76.088;2023-04-15T03:46:22;5;4;
31330;PMS5003;34067;39.548;-76.088;2023-04-15T03:48:50;5;4;
31330;PMS5003;34067;39.548;-76.088;2023-04-15T03:51:18;4;4;
31330;PMS5003;34067;39.548;-76.088;2023-04-15T03:53:46;3;3;
31330;PMS5003;34067;39.548;-76.088;2023-04-15T03:56:14;4;4;
31330;PMS5003;34067;39.548;-76.088;2023-04-15T03:58:42;4;3;
31330;PMS5003;34067;39.548;-76.088;2023-04-15T04:01:10;5;4;
31330;PMS5003;34067;39.548;-76.088;2023-04-15T04:03:38;4;4;
31330;PMS5003;34067;39.548;-76.088;2023-04-15T04:06:06;4;3;
31330;PMS5003;34067;39.548;-76.088;2023-04-15T04:08:34;5;4;
31330;PMS5003;34067;39.548;-76.088;2023-04-15T04:11:02;4;4;
31330;PMS5003;34067;39.548;-76.088;2023-04-15T04:13:29;5;5;
31330;PMS5003;34067;39.548;-76.088;2023-04-15T04:15:57;3;3;
31330;PMS5003;34067;39.548;-76.088;2023-04-15T04:18:25;5;5;
31330;PMS5003;34067;39.548;-76.088;2023-04-15T04:20:53;5;5;
31330;PMS5003;34067;39.548;-76.088;2023-04-15T04:23:21;4;4;
31330;PMS5003;34067;39.548;-76.088;2023-04-15T04:25:49;5;5;
31330;PMS5003;34067;39.548;-76.088;2023-04-15T04:28:18;7;7;
31330;PMS5003;34067;39.548;-76.088;2023-04-15T04:30:45;7;7;
31330;PMS5003;34067;39.548;-76.088;2023-04-15T04:33:13;5;5;
31330;PMS5003;34067;39.548;-76.088;2023-04-15T04:35:41;7;6;
31330;PMS5003;34067;39.548;-76.088;2023-04-15T04:38:09;4;4;
31330;PMS5003;34067;39.548;-76.088;2023-04-15T04:40:36;6;6;
31330;PMS5003;34067;39.548;-76.088;2023-04-15T04:43:04;5;5;
31330;PMS5003;34067;39.548;-76.088;2023-04-15T04:45:32;6;6;
31330;PMS5003;34067;39.548;-76.088;2023-04-15T04:48:00;7;7;
31330;PMS5003;34067;39.548;-76.088;2023-04-15T04:50:28;7;7;
31330;PMS5003;34067;39.548;-76.088;2023-04-15T04:52:56;8;7;
31330;PMS5003;34067;39.548;-76.088;2023-04-15T04:55:24;6;6;
31330;PMS5003;34067;39.548;-76.088;2023-04-15T04:57:52;8;7;
31330;PMS5003;34067;39.548;-76.088;2023-04-15T05:03:09;7;6;
31330;PMS5003;34067;39.548;-76.088;2023-04-15T05:05:36;8;7;
31330;PMS5003;34067;39.548;-76.088;2023-04-15T05:08:04;9;9;
31330;PMS5003;34067;39.548;-76.088;2023-04-15T05:10:32;5;5;
31330;PMS5003;34067;39.548;-76.088;2023-04-15T05:13:00;7;6;
31330;PMS5003;34067;39.548;-76.088;2023-04-15T05:15:28;7;7;
31330;PMS5003;34067;39.548;-76.088;2023-04-15T05:17:56;6;6;
31330;PMS5003;34067;39.548;-76.088;2023-04-15T05:20:24;12;9;
31330;PMS5003;34067;39.548;-76.088;2023-04-15T05:22:52;7;7;
31330;PMS5003;34067;39.548;-76.088;2023-04-15T05:25:20;6;6;
31330;PMS5003;34067;39.548;-76.088;2023-04-15T05:27:48;8;7;
31330;PMS5003;34067;39.548;-76.088;2023-04-15T05:30:16;9;9;
31330;PMS5003;34067;39.548;-76.088;2023-04-15T05:32:44;8;5;
31330;PMS5003;34067;39.548;-76.088;2023-04-15T05:35:11;7;6;
31330;PMS5003;34067;39.548;-76.088;2023-04-15T05:37:39;6;6;
31330;PMS5003;34067;39.548;-76.088;2023-04-15T05:40:07;7;7;
31330;PMS5003;34067;39.548;-76.088;2023-04-15T05:42:35;5;5;
31330;PMS5003;34067;39.548;-76.088;2023-04-15T05:45:03;8;6;
31330;PMS5003;34067;39.548;-76.088;2023-04-15T05:47:32;6;6;
31330;PMS5003;34067;39.548;-76.088;2023-04-15T05:50:00;9;8;
31330;PMS5003;34067;39.548;-76.088;2023-04-15T05:52:28;8;8;
31330;PMS5003;34067;39.548;-76.088;2023-04-15T05:54:56;5;5;
31330;PMS5003;34067;39.548;-76.088;2023-04-15T05:57:24;7;7;
31330;PMS5003;34067;39.548;-76.088;2023-04-15T05:59:52;5;4;
31330;PMS5003;34067;39.548;-76.088;2023-04-15T06:02:19;4;4;
31330;PMS5003;34067;39.548;-76.088;2023-04-15T06:04:47;6;5;
31330;PMS5003;34067;39.548;-76.088;2023-04-15T06:07:15;6;5;
31330;PMS5003;34067;39.548;-76.088;2023-04-15T06:09:44;9;8;
31330;PMS5003;34067;39.548;-76.088;2023-04-15T06:12:12;7;7;
31330;PMS5003;34067;39.548;-76.088;2023-04-15T06:14:40;8;7;
31330;PMS5003;34067;39.548;-76.088;2023-04-15T06:17:08;6;6;
31330;PMS5003;34067;39.548;-76.088;2023-04-15T06:19:36;10;8;
31330;PMS5003;34067;39.548;-76.088;2023-04-15T06:22:04;8;8;
31330;PMS5003;34067;39.548;-76.088;2023-04-15T06:24:32;6;6;
31330;PMS5003;34067;39.548;-76.088;2023-04-15T06:27:00;7;7;
31330;PMS5003;34067;39.548;-76.088;2023-04-15T06:29:28;7;7;
31330;PMS5003;34067;39.548;-76.088;2023-04-15T06:31:56;6;5;
31330;PMS5003;34067;39.548;-76.088;2023-04-15T06:34:24;5;5;
31330;PMS5003;34067;39.548;-76.088;2023-04-15T06:36:52;7;7;
31330;PMS5003;34067;39.548;-76.088;2023-04-15T06:39:19;6;6;
31330;PMS5003;34067;39.548;-76.088;2023-04-15T06:41:47;8;8;
31330;PMS5003;34067;39.548;-76.088;2023-04-15T06:44:15;7;6;
31330;PMS5003;34067;39.548;-76.088;2023-04-15T06:46:43;7;7;
31330;PMS5003;34067;39.548;-76.088;2023-04-15T06:49:11;9;8;
31330;PMS5003;34067;39.548;-76.088;2023-04-15T06:51:38;8;7;
31330;PMS5003;34067;39.548;-76.088;2023-04-15T06:54:09;6;6;
31330;PMS5003;34067;39.548;-76.088;2023-04-15T06:56:36;9;8;
31330;PMS5003;34067;39.548;-76.088;2023-04-15T06:59:04;9;7;
31330;PMS5003;34067;39.548;-76.088;2023-04-15T07:01:32;8;7;
31330;PMS5003;34067;39.548;-76.088;2023-04-15T07:04:00;8;7;
31330;PMS5003;34067;39.548;-76.088;2023-04-15T07:06:28;7;7;
31330;PMS5003;34067;39.548;-76.088;2023-04-15T07:08:56;8;7;
31330;PMS5003;34067;39.548;-76.088;2023-04-15T07:11:25;8;8;
31330;PMS5003;34067;39.548;-76.088;2023-04-15T07:13:52;9;9;
31330;PMS5003;34067;39.548;-76.088;2023-04-15T07:16:20;9;9;
31330;PMS5003;34067;39.548;-76.088;2023-04-15T07:18:48;7;7;
31330;PMS5003;34067;39.548;-76.088;2023-04-15T07:21:16;9;8;
31330;PMS5003;34067;39.548;-76.088;2023-04-15T07:23:44;6;6;
31330;PMS5003;34067;39.548;-76.088;2023-04-15T07:26:11;7;7;
31330;PMS5003;34067;39.548;-76.088;2023-04-15T07:28:39;10;8;
31330;PMS5003;34067;39.548;-76.088;2023-04-15T07:31:07;8;8;
31330;PMS5003;34067;39.548;-76.088;2023-04-15T07:33:35;9;9;
31330;PMS5003;34067;39.548;-76.088;2023-04-15T07:36:03;6;6;
31330;PMS5003;34067;39.548;-76.088;2023-04-15T07:38:31;7;7;
31330;PMS5003;34067;39.548;-76.088;2023-04-15T07:40:59;9;8;
31330;PMS5003;34067;39.548;-76.088;2023-04-15T07:43:27;11;9;
31330;PMS5003;34067;39.548;-76.088;2023-04-15T07:45:54;10;10;
31330;PMS5003;34067;39.548;-76.088;2023-04-15T07:48:22;10;8;
31330;PMS5003;34067;39.548;-76.088;2023-04-15T07:50:50;6;6;
31330;PMS5003;34067;39.548;-76.088;2023-04-15T07:53:18;8;8;
31330;PMS5003;34067;39.548;-76.088;2023-04-15T07:55:46;8;8;
31330;PMS5003;34067;39.548;-76.088;2023-04-15T07:58:14;8;8;
31330;PMS5003;34067;39.548;-76.088;2023-04-15T08:00:42;6;6;
31330;PMS5003;34067;39.548;-76.088;2023-04-15T08:03:10;10;8;
31330;PMS5003;34067;39.548;-76.088;2023-04-15T08:05:38;6;6;
31330;PMS5003;34067;39.548;-76.088;2023-04-15T08:08:06;9;8;
31330;PMS5003;34067;39.548;-76.088;2023-04-15T08:10:34;8;7;
31330;PMS5003;34067;39.548;-76.088;2023-04-15T08:13:03;7;6;
31330;PMS5003;34067;39.548;-76.088;2023-04-15T08:15:31;7;7;
31330;PMS5003;34067;39.548;-76.088;2023-04-15T08:17:59;6;6;
31330;PMS5003;34067;39.548;-76.088;2023-04-15T08:20:28;10;9;
31330;PMS5003;34067;39.548;-76.088;2023-04-15T08:22:56;10;9;
31330;PMS5003;34067;39.548;-76.088;2023-04-15T08:25:24;7;7;
31330;PMS5003;34067;39.548;-76.088;2023-04-15T08:27:54;8;8;
31330;PMS5003;34067;39.548;-76.088;2023-04-15T08:30:21;6;5;
31330;PMS5003;34067;39.548;-76.088;2023-04-15T08:32:49;7;7;
31330;PMS5003;34067;39.548;-76.088;2023-04-15T08:35:17;6;6;
31330;PMS5003;34067;39.548;-76.088;2023-04-15T08:37:45;10;9;
31330;PMS5003;34067;39.548;-76.088;2023-04-15T08:40:13;8;8;
31330;PMS5003;34067;39.548;-76.088;2023-04-15T08:42:43;7;7;
31330;PMS5003;34067;39.548;-76.088;2023-04-15T08:45:14;7;7;
31330;PMS5003;34067;39.548;-76.088;2023-04-15T08:47:43;9;7;
31330;PMS5003;34067;39.548;-76.088;2023-04-15T08:50:14;7;7;
31330;PMS5003;34067;39.548;-76.088;2023-04-15T08:52:43;10;9;
31330;PMS5003;34067;39.548;-76.088;2023-04-15T08:55:11;9;8;
31330;PMS5003;34067;39.548;-76.088;2023-04-15T08:57:42;6;5;
31330;PMS5003;34067;39.548;-76.088;2023-04-15T09:00:10;9;9;
31330;PMS5003;34067;39.548;-76.088;2023-04-15T09:02:39;9;9;
31330;PMS5003;34067;39.548;-76.088;2023-04-15T09:05:08;8;8;
31330;PMS5003;34067;39.548;-76.088;2023-04-15T09:07:36;8;8;
31330;PMS5003;34067;39.548;-76.088;2023-04-15T09:10:04;7;7;
31330;PMS5003;34067;39.548;-76.088;2023-04-15T09:12:33;8;7;
31330;PMS5003;34067;39.548;-76.088;2023-04-15T09:15:02;10;10;
31330;PMS5003;34067;39.548;-76.088;2023-04-15T09:17:32;23;22;
31330;PMS5003;34067;39.548;-76.088;2023-04-15T09:20:08;15;14;
31330;PMS5003;34067;39.548;-76.088;2023-04-15T09:22:37;6;6;
31330;PMS5003;34067;39.548;-76.088;2023-04-15T09:25:15;7;6;
31330;PMS5003;34067;39.548;-76.088;2023-04-15T09:27:52;8;8;
31330;PMS5003;34067;39.548;-76.088;2023-04-15T09:30:22;8;7;
31330;PMS5003;34067;39.548;-76.088;2023-04-15T09:32:50;6;6;
31330;PMS5003;34067;39.548;-76.088;2023-04-15T09:35:18;6;6;
31330;PMS5003;34067;39.548;-76.088;2023-04-15T09:37:47;8;8;
31330;PMS5003;34067;39.548;-76.088;2023-04-15T09:40:30;8;8;
31330;PMS5003;34067;39.548;-76.088;2023-04-15T09:42:58;6;5;
31330;PMS5003;34067;39.548;-76.088;2023-04-15T09:45:27;7;6;
31330;PMS5003;34067;39.548;-76.088;2023-04-15T09:47:56;9;8;
31330;PMS5003;34067;39.548;-76.088;2023-04-15T09:50:26;9;7;
31330;PMS5003;34067;39.548;-76.088;2023-04-15T09:52:55;6;6;
31330;PMS5003;34067;39.548;-76.088;2023-04-15T09:55:23;6;6;
31330;PMS5003;34067;39.548;-76.088;2023-04-15T09:57:51;10;9;
31330;PMS5003;34067;39.548;-76.088;2023-04-15T10:00:18;9;8;
31330;PMS5003;34067;39.548;-76.088;2023-04-15T10:02:46;7;7;
31330;PMS5003;34067;39.548;-76.088;2023-04-15T10:05:14;8;7;
31330;PMS5003;34067;39.548;-76.088;2023-04-15T10:07:42;5;5;
31330;PMS5003;34067;39.548;-76.088;2023-04-15T10:10:11;5;5;
31330;PMS5003;34067;39.548;-76.088;2023-04-15T10:12:40;5;5;
31330;PMS5003;34067;39.548;-76.088;2023-04-15T10:15:15;8;6;
31330;PMS5003;34067;39.548;-76.088;2023-04-15T10:17:44;7;7;
31330;PMS5003;34067;39.548;-76.088;2023-04-15T10:20:16;5;5;
31330;PMS5003;34067;39.548;-76.088;2023-04-15T10:22:46;6;5;
31330;PMS5003;34067;39.548;-76.088;2023-04-15T10:25:14;7;6;
31330;PMS5003;34067;39.548;-76.088;2023-04-15T10:27:42;7;7;
31330;PMS5003;34067;39.548;-76.088;2023-04-15T10:30:10;8;8;
31330;PMS5003;34067;39.548;-76.088;2023-04-15T10:32:38;9;9;
31330;PMS5003;34067;39.548;-76.088;2023-04-15T10:35:07;9;9;
31330;PMS5003;34067;39.548;-76.088;2023-04-15T10:37:37;17;15;
31330;PMS5003;34067;39.548;-76.088;2023-04-15T10:40:37;10;9;
31330;PMS5003;34067;39.548;-76.088;2023-04-15T10:43:06;8;8;
31330;PMS5003;34067;39.548;-76.088;2023-04-15T10:45:50;7;7;
31330;PMS5003;34067;39.548;-76.088;2023-04-15T10:48:20;7;7;
31330;PMS5003;34067;39.548;-76.088;2023-04-15T10:50:55;7;7;
31330;PMS5003;34067;39.548;-76.088;2023-04-15T10:53:26;8;7;
31330;PMS5003;34067;39.548;-76.088;2023-04-15T10:55:55;7;6;
31330;PMS5003;34067;39.548;-76.088;2023-04-15T10:58:24;6;6;
31330;PMS5003;34067;39.548;-76.088;2023-04-15T11:00:52;9;8;
31330;PMS5003;34067;39.548;-76.088;2023-04-15T11:03:33;7;7;
31330;PMS5003;34067;39.548;-76.088;2023-04-15T11:06:04;6;5;
31330;PMS5003;34067;39.548;-76.088;2023-04-15T11:09:05;5;5;
31330;PMS5003;34067;39.548;-76.088;2023-04-15T11:12:06;7;6;
31330;PMS5003;34067;39.548;-76.088;2023-04-15T11:14:37;4;4;
31330;PMS5003;34067;39.548;-76.088;2023-04-15T11:17:06;6;6;
31330;PMS5003;34067;39.548;-76.088;2023-04-15T11:19:36;4;4;
31330;PMS5003;34067;39.548;-76.088;2023-04-15T11:22:07;8;5;
31330;PMS5003;34067;39.548;-76.088;2023-04-15T11:24:36;5;5;
31330;PMS5003;34067;39.548;-76.088;2023-04-15T11:27:19;4;4;
31330;PMS5003;34067;39.548;-76.088;2023-04-15T11:29:47;6;4;
31330;PMS5003;34067;39.548;-76.088;2023-04-15T11:32:15;5;5;
31330;PMS5003;34067;39.548;-76.088;2023-04-15T11:34:44;5;5;
31330;PMS5003;34067;39.548;-76.088;2023-04-15T11:37:12;5;5;
31330;PMS5003;34067;39.548;-76.088;2023-04-15T11:39:40;7;7;
31330;PMS5003;34067;39.548;-76.088;2023-04-15T11:42:15;6;6;
31330;PMS5003;34067;39.548;-76.088;2023-04-15T11:44:43;6;6;
31330;PMS5003;34067;39.548;-76.088;2023-04-15T11:47:21;6;5;
31330;PMS5003;34067;39.548;-76.088;2023-04-15T11:49:49;8;6;
31330;PMS5003;34067;39.548;-76.088;2023-04-15T11:52:17;6;6;
31330;PMS5003;34067;39.548;-76.088;2023-04-15T11:54:45;8;8;
31330;PMS5003;34067;39.548;-76.088;2023-04-15T11:57:13;6;5;
31330;PMS5003;34067;39.548;-76.088;2023-04-15T11:59:41;6;6;
31330;PMS5003;34067;39.548;-76.088;2023-04-15T12:02:10;9;9;
31330;PMS5003;34067;39.548;-76.088;2023-04-15T12:04:38;7;7;
31330;PMS5003;34067;39.548;-76.088;2023-04-15T12:07:06;9;9;
31330;PMS5003;34067;39.548;-76.088;2023-04-15T12:09:37;7;6;
31330;PMS5003;34067;39.548;-76.088;2023-04-15T12:12:05;6;6;
31330;PMS5003;34067;39.548;-76.088;2023-04-15T12:14:33;7;7;
31330;PMS5003;34067;39.548;-76.088;2023-04-15T12:17:01;32;30;
31330;PMS5003;34067;39.548;-76.088;2023-04-15T12:19:33;9;9;
31330;PMS5003;34067;39.548;-76.088;2023-04-15T12:22:03;11;10;
31330;PMS5003;34067;39.548;-76.088;2023-04-15T12:24:32;7;6;
31330;PMS5003;34067;39.548;-76.088;2023-04-15T12:27:02;5;4;
31330;PMS5003;34067;39.548;-76.088;2023-04-15T12:29:32;9;8;
31330;PMS5003;34067;39.548;-76.088;2023-04-15T12:32:03;9;8;
31330;PMS5003;34067;39.548;-76.088;2023-04-15T12:34:33;10;9;
31330;PMS5003;34067;39.548;-76.088;2023-04-15T12:37:02;8;8;
31330;PMS5003;34067;39.548;-76.088;2023-04-15T12:39:34;9;9;
31330;PMS5003;34067;39.548;-76.088;2023-04-15T12:42:03;7;7;
31330;PMS5003;34067;39.548;-76.088;2023-04-15T12:44:32;7;7;
31330;PMS5003;34067;39.548;-76.088;2023-04-15T12:47:01;7;7;
31330;PMS5003;34067;39.548;-76.088;2023-04-15T12:49:29;8;8;
31330;PMS5003;34067;39.548;-76.088;2023-04-15T12:51:58;8;8;
31330;PMS5003;34067;39.548;-76.088;2023-04-15T12:54:28;7;7;
31330;PMS5003;34067;39.548;-76.088;2023-04-15T12:56:57;9;8;
31330;PMS5003;34067;39.548;-76.088;2023-04-15T12:59:25;6;6;
31330;PMS5003;34067;39.548;-76.088;2023-04-15T13:01:53;6;6;
31330;PMS5003;34067;39.548;-76.088;2023-04-15T13:04:20;10;9;
31330;PMS5003;34067;39.548;-76.088;2023-04-15T13:06:48;8;8;
31330;PMS5003;34067;39.548;-76.088;2023-04-15T13:09:16;7;7;
31330;PMS5003;34067;39.548;-76.088;2023-04-15T13:11:43;8;8;
31330;PMS5003;34067;39.548;-76.088;2023-04-15T13:14:11;9;8;
31330;PMS5003;34067;39.548;-76.088;2023-04-15T13:16:39;8;7;
31330;PMS5003;34067;39.548;-76.088;2023-04-15T13:19:07;6;6;
31330;PMS5003;34067;39.548;-76.088;2023-04-15T13:21:35;8;6;
31330;PMS5003;34067;39.548;-76.088;2023-04-15T13:24:03;9;9;
31330;PMS5003;34067;39.548;-76.088;2023-04-15T13:26:31;9;8;
31330;PMS5003;34067;39.548;-76.088;2023-04-15T13:28:59;10;9;
31330;PMS5003;34067;39.548;-76.088;2023-04-15T13:31:27;7;7;
31330;PMS5003;34067;39.548;-76.088;2023-04-15T13:33:55;8;8;
31330;PMS5003;34067;39.548;-76.088;2023-04-15T13:36:23;9;7;
31330;PMS5003;34067;39.548;-76.088;2023-04-15T13:38:51;11;11;
31330;PMS5003;34067;39.548;-76.088;2023-04-15T13:41:19;11;10;
31330;PMS5003;34067;39.548;-76.088;2023-04-15T13:43:47;8;7;
31330;PMS5003;34067;39.548;-76.088;2023-04-15T13:46:14;13;11;
31330;PMS5003;34067;39.548;-76.088;2023-04-15T13:48:42;9;9;
31330;PMS5003;34067;39.548;-76.088;2023-04-15T13:51:09;8;7;
31330;PMS5003;34067;39.548;-76.088;2023-04-15T13:53:37;9;8;
31330;PMS5003;34067;39.548;-76.088;2023-04-15T13:56:05;12;11;
31330;PMS5003;34067;39.548;-76.088;2023-04-15T13:58:34;9;8;
31330;PMS5003;34067;39.548;-76.088;2023-04-15T14:01:03;7;7;
31330;PMS5003;34067;39.548;-76.088;2023-04-15T14:03:32;11;11;
31330;PMS5003;34067;39.548;-76.088;2023-04-15T14:06:01;6;6;
31330;PMS5003;34067;39.548;-76.088;2023-04-15T14:08:28;8;7;
31330;PMS5003;34067;39.548;-76.088;2023-04-15T14:10:56;8;8;
31330;PMS5003;34067;39.548;-76.088;2023-04-15T14:13:24;10;10;
31330;PMS5003;34067;39.548;-76.088;2023-04-15T14:15:52;14;13;
31330;PMS5003;34067;39.548;-76.088;2023-04-15T14:18:20;10;9;
31330;PMS5003;34067;39.548;-76.088;2023-04-15T14:20:48;9;8;
31330;PMS5003;34067;39.548;-76.088;2023-04-15T14:23:16;17;14;
31330;PMS5003;34067;39.548;-76.088;2023-04-15T14:25:45;14;13;
31330;PMS5003;34067;39.548;-76.088;2023-04-15T14:28:13;35;35;
31330;PMS5003;34067;39.548;-76.088;2023-04-15T14:30:41;43;43;
31330;PMS5003;34067;39.548;-76.088;2023-04-15T14:33:09;59;58;
31330;PMS5003;34067;39.548;-76.088;2023-04-15T14:35:38;26;26;
31330;PMS5003;34067;39.548;-76.088;2023-04-15T14:38:06;62;61;
31330;PMS5003;34067;39.548;-76.088;2023-04-15T14:40:34;62;61;
31330;PMS5003;34067;39.548;-76.088;2023-04-15T14:43:02;19;19;
31330;PMS5003;34067;39.548;-76.088;2023-04-15T14:45:30;30;30;
31330;PMS5003;34067;39.548;-76.088;2023-04-15T14:47:58;11;11;
31330;PMS5003;34067;39.548;-76.088;2023-04-15T14:50:25;14;13;
31330;PMS5003;34067;39.548;-76.088;2023-04-15T14:52:53;16;16;
31330;PMS5003;34067;39.548;-76.088;2023-04-15T14:55:21;21;21;
31330;PMS5003;34067;39.548;-76.088;2023-04-15T14:57:49;13;13;
31330;PMS5003;34067;39.548;-76.088;2023-04-15T15:00:17;9;7;
31330;PMS5003;34067;39.548;-76.088;2023-04-15T15:02:45;18;17;
31330;PMS5003;34067;39.548;-76.088;2023-04-15T15:05:13;12;12;
31330;PMS5003;34067;39.548;-76.088;2023-04-15T15:07:41;51;49;
31330;PMS5003;34067;39.548;-76.088;2023-04-15T15:10:09;26;25;
31330;PMS5003;34067;39.548;-76.088;2023-04-15T15:12:37;16;15;
31330;PMS5003;34067;39.548;-76.088;2023-04-15T15:15:05;40;39;
31330;PMS5003;34067;39.548;-76.088;2023-04-15T15:17:34;56;55;
31330;PMS5003;34067;39.548;-76.088;2023-04-15T15:20:02;67;66;
31330;PMS5003;34067;39.548;-76.088;2023-04-15T15:22:30;78;77;
31330;PMS5003;34067;39.548;-76.088;2023-04-15T15:24:58;52;50;
31330;PMS5003;34067;39.548;-76.088;2023-04-15T15:27:26;62;62;
31330;PMS5003;34067;39.548;-76.088;2023-04-15T15:29:55;40;40;
31330;PMS5003;34067;39.548;-76.088;2023-04-15T15:32:22;48;48;
31330;PMS5003;34067;39.548;-76.088;2023-04-15T15:34:51;19;19;
31330;PMS5003;34067;39.548;-76.088;2023-04-15T15:37:18;22;18;
31330;PMS5003;34067;39.548;-76.088;2023-04-15T15:39:47;11;10;
31330;PMS5003;34067;39.548;-76.088;2023-04-15T15:42:15;11;11;
31330;PMS5003;34067;39.548;-76.088;2023-04-15T15:44:44;8;8;
31330;PMS5003;34067;39.548;-76.088;2023-04-15T15:47:12;10;10;
31330;PMS5003;34067;39.548;-76.088;2023-04-15T15:49:40;11;10;
31330;PMS5003;34067;39.548;-76.088;2023-04-15T15:52:08;7;6;
31330;PMS5003;34067;39.548;-76.088;2023-04-15T15:54:36;9;8;
31330;PMS5003;34067;39.548;-76.088;2023-04-15T15:57:05;8;7;
31330;PMS5003;34067;39.548;-76.088;2023-04-15T15:59:33;27;24;
31330;PMS5003;34067;39.548;-76.088;2023-04-15T16:02:01;9;9;
31330;PMS5003;34067;39.548;-76.088;2023-04-15T16:04:29;12;12;
31330;PMS5003;34067;39.548;-76.088;2023-04-15T16:06:57;7;6;
31330;PMS5003;34067;39.548;-76.088;2023-04-15T16:09:24;7;7;
31330;PMS5003;34067;39.548;-76.088;2023-04-15T16:11:52;9;9;
31330;PMS5003;34067;39.548;-76.088;2023-04-15T16:14:20;10;10;
31330;PMS5003;34067;39.548;-76.088;2023-04-15T16:16:48;10;9;
31330;PMS5003;34067;39.548;-76.088;2023-04-15T16:19:16;8;8;
31330;PMS5003;34067;39.548;-76.088;2023-04-15T16:21:44;11;10;
31330;PMS5003;34067;39.548;-76.088;2023-04-15T16:24:12;7;7;